Time;durP1;ratioP1;P1;durP2;ratioP2;P2;SDS_P1;SDS_P2;PMS_P1;PMS_P2;Temp;Humidity;BMP_temperature;BMP_pressure;BME280_temperature;BME280_humidity;BME280_pressure;Samples;Min_cycle;Max_cycle;Signal;HPM_P1;HPM_P2
2022/04/12 00:00:40;;;;;;;10.23;6.53;;;1.20;99.90;;;;;;4140859;28;20259;-54
2022/04/12 00:02:42;;;;;;;14.80;6.53;;;1.20;99.90;;;;;;4139449;28;20278;-57
2022/04/12 00:04:43;;;;;;;12.73;6.20;;;1.20;99.90;;;;;;4139694;28;20338;-56
2022/04/12 00:06:44;;;;;;;12.87;6.70;;;1.10;99.90;;;;;;4141141;28;20597;-58
2022/04/12 00:08:45;;;;;;;12.87;6.40;;;1.10;99.90;;;;;;4140008;28;20299;-58
2022/04/12 00:10:46;;;;;;;11.70;5.80;;;1.10;99.90;;;;;;4141334;28;20267;-53
2022/04/12 00:12:48;;;;;;;11.60;5.63;;;1.10;99.90;;;;;;4139944;28;20279;-58
2022/04/12 00:14:49;;;;;;;9.10;5.53;;;1.00;99.90;;;;;;4142003;28;20279;-58
2022/04/12 00:19:02;;;;;;;11.47;6.43;;;1.10;99.90;;;;;;4139848;28;20353;-55
2022/04/12 00:19:13;;;;;;;;;;;1.10;99.90;;;;;;4141678;28;20353;-54
2022/04/12 00:21:14;;;;;;;11.40;5.37;;;1.10;99.90;;;;;;4143192;28;19917;-54
2022/04/12 00:23:15;;;;;;;9.37;6.53;;;1.10;99.90;;;;;;4144107;28;20278;-56
2022/04/12 00:25:18;;;;;;;10.07;6.27;;;1.10;99.90;;;;;;4142995;28;20624;-57
2022/04/12 00:27:19;;;;;;;10.57;5.90;;;1.10;99.90;;;;;;4143980;28;20353;-54
2022/04/12 00:29:21;;;;;;;11.03;5.80;;;1.00;99.90;;;;;;4142773;28;20299;-54
2022/04/12 00:31:22;;;;;;;10.70;6.10;;;1.00;99.90;;;;;;4143380;28;20345;-57
2022/04/12 00:33:23;;;;;;;10.30;6.23;;;1.00;99.90;;;;;;4142918;28;20259;-56
2022/04/12 00:35:25;;;;;;;9.87;5.80;;;0.90;99.90;;;;;;4143520;28;20325;-64
2022/04/12 00:37:27;;;;;;;10.23;6.10;;;1.00;99.90;;;;;;4143831;28;20279;-58
2022/04/12 00:39:28;;;;;;;12.47;6.00;;;0.90;99.90;;;;;;4142734;28;20263;-56
2022/04/12 00:41:35;;;;;;;13.57;6.47;;;0.90;99.90;;;;;;4143869;28;20267;-53
2022/04/12 00:43:37;;;;;;;10.13;6.37;;;0.80;99.90;;;;;;4142932;28;20822;-50
2022/04/12 00:45:39;;;;;;;9.70;5.70;;;0.80;99.90;;;;;;4143923;28;20797;-55
2022/04/12 00:47:40;;;;;;;10.67;5.87;;;0.80;99.90;;;;;;4142635;28;20280;-55
2022/04/12 00:49:42;;;;;;;12.73;6.57;;;0.80;99.90;;;;;;4143875;28;20298;-53
2022/04/12 00:51:43;;;;;;;11.07;6.77;;;0.70;99.90;;;;;;4142468;28;20875;-56
2022/04/12 00:53:45;;;;;;;10.67;5.87;;;0.70;99.90;;;;;;4143869;28;20334;-57
2022/04/12 00:55:46;;;;;;;12.33;6.47;;;0.80;99.90;;;;;;4142660;28;20743;-58
2022/04/12 00:57:48;;;;;;;14.97;6.87;;;0.80;99.90;;;;;;4143584;28;20339;-54
2022/04/12 00:59:51;;;;;;;15.13;6.73;;;0.70;99.90;;;;;;4142372;28;20283;-50
2022/04/12 01:01:52;;;;;;;13.53;7.07;;;0.70;99.90;;;;;;4143582;28;20283;-58
2022/04/12 01:03:54;;;;;;;11.60;5.87;;;0.60;99.90;;;;;;4142118;28;20333;-60
2022/04/12 01:05:56;;;;;;;11.20;5.80;;;0.60;99.90;;;;;;4143065;28;20290;-55
2022/04/12 01:07:58;;;;;;;8.20;5.40;;;0.60;99.90;;;;;;4142688;28;20287;-57
2022/04/12 01:10:00;;;;;;;11.07;6.53;;;0.60;99.90;;;;;;4142486;28;20333;-54
2022/04/12 01:12:09;;;;;;;10.87;6.37;;;0.60;99.90;;;;;;4142478;28;20287;-54
2022/04/12 01:14:10;;;;;;;12.70;5.83;;;0.60;99.90;;;;;;4143212;28;20326;-53
2022/04/12 01:16:11;;;;;;;13.03;6.03;;;0.60;99.90;;;;;;4142455;28;20364;-56
2022/04/12 01:18:12;;;;;;;11.23;5.80;;;0.60;99.90;;;;;;4141922;28;20284;-54
2022/04/12 01:20:15;;;;;;;8.77;5.10;;;0.60;99.90;;;;;;4143286;28;20291;-53
2022/04/12 01:22:22;;;;;;;9.47;5.53;;;0.60;99.90;;;;;;4142026;28;20912;-57
2022/04/12 01:24:23;;;;;;;12.70;5.80;;;0.60;99.90;;;;;;4142997;28;20275;-55
2022/04/12 01:26:24;;;;;;;13.80;5.80;;;0.50;99.90;;;;;;4142018;28;20271;-55
2022/04/12 01:28:26;;;;;;;7.87;5.17;;;0.60;99.90;;;;;;4143737;28;20292;-56
2022/04/12 01:30:27;;;;;;;7.40;4.57;;;0.50;99.90;;;;;;4142192;28;20264;-52
2022/04/12 01:32:28;;;;;;;8.47;4.70;;;0.60;99.90;;;;;;4141711;28;20687;-59
2022/04/12 01:34:29;;;;;;;8.13;4.83;;;0.60;99.90;;;;;;4141924;28;20375;-52
2022/04/12 01:36:30;;;;;;;7.83;4.77;;;0.60;99.90;;;;;;4143042;28;20275;-54
2022/04/12 01:38:31;;;;;;;8.00;4.80;;;0.60;99.90;;;;;;4141873;28;20350;-56
2022/04/12 01:40:33;;;;;;;10.27;5.40;;;0.60;99.90;;;;;;4142760;28;20283;-63
2022/04/12 01:42:34;;;;;;;10.33;5.03;;;0.50;99.90;;;;;;4142321;28;20338;-53
2022/04/12 01:44:35;;;;;;;9.20;4.90;;;0.50;99.90;;;;;;4142397;28;20322;-56
2022/04/12 01:46:36;;;;;;;9.17;5.43;;;0.50;99.90;;;;;;4142674;28;20325;-50
2022/04/12 01:48:37;;;;;;;10.37;5.20;;;0.50;99.90;;;;;;4140791;28;20865;-54
2022/04/12 01:50:38;;;;;;;7.77;4.63;;;0.50;99.90;;;;;;4142457;28;20275;-60
2022/04/12 01:52:39;;;;;;;11.03;5.57;;;0.50;99.90;;;;;;4141777;28;20272;-52
2022/04/12 01:54:41;;;;;;;12.30;6.27;;;0.40;99.90;;;;;;4142919;28;20268;-54
2022/04/12 01:56:42;;;;;;;12.90;6.60;;;0.40;99.90;;;;;;4141745;28;20861;-56
2022/04/12 01:58:43;;;;;;;10.20;5.90;;;0.40;99.90;;;;;;4142629;28;20333;-54
2022/04/12 02:00:44;;;;;;;9.23;5.77;;;0.40;99.90;;;;;;4141578;28;20377;-52
2022/04/12 02:02:46;;;;;;;13.30;6.00;;;0.30;99.90;;;;;;4142189;28;20276;-60
2022/04/12 02:04:47;;;;;;;9.57;5.80;;;0.30;99.90;;;;;;4141618;28;20286;-59
2022/04/12 02:06:48;;;;;;;10.87;5.90;;;0.30;99.90;;;;;;4142714;28;20302;-56
2022/04/12 02:08:49;;;;;;;8.83;5.53;;;0.30;99.90;;;;;;4140768;28;20299;-56
2022/04/12 02:10:51;;;;;;;9.03;5.23;;;0.30;99.90;;;;;;4142602;28;20296;-54
2022/04/12 02:12:52;;;;;;;9.50;5.37;;;0.20;99.90;;;;;;4141860;28;20298;-54
2022/04/12 02:14:54;;;;;;;10.70;4.77;;;0.30;99.90;;;;;;4142793;28;20275;-53
2022/04/12 02:16:55;;;;;;;7.77;4.60;;;0.20;99.90;;;;;;4141550;28;20333;-54
2022/04/12 02:18:56;;;;;;;8.77;4.57;;;0.20;99.90;;;;;;4141384;28;20703;-53
2022/04/12 02:20:57;;;;;;;9.40;5.03;;;0.20;99.90;;;;;;4142623;28;20322;-55
2022/04/12 02:22:58;;;;;;;8.27;4.50;;;0.20;99.90;;;;;;4140820;28;20271;-54
2022/04/12 02:24:59;;;;;;;8.57;4.50;;;0.30;99.90;;;;;;4142041;28;20272;-52
2022/04/12 02:27:00;;;;;;;9.83;4.70;;;0.30;99.90;;;;;;4140774;28;20264;-53
2022/04/12 02:29:01;;;;;;;8.97;3.93;;;0.30;99.90;;;;;;4142001;28;20709;-51
2022/04/12 02:31:03;;;;;;;9.10;4.27;;;0.30;99.90;;;;;;4141055;28;21114;-53
2022/04/12 02:33:04;;;;;;;12.13;5.03;;;0.30;99.90;;;;;;4141653;28;20275;-58
2022/04/12 02:35:06;;;;;;;12.10;4.40;;;0.30;99.90;;;;;;4140963;28;20341;-51
2022/04/12 02:37:07;;;;;;;4.73;3.40;;;0.40;99.90;;;;;;4142692;28;20338;-50
2022/04/12 02:39:08;;;;;;;6.43;3.63;;;0.40;99.90;;;;;;4141241;28;20259;-50
2022/04/12 02:41:09;;;;;;;6.33;3.57;;;0.40;99.90;;;;;;4141992;28;20751;-54
2022/04/12 02:43:10;;;;;;;8.83;3.70;;;0.40;99.90;;;;;;4140551;28;20263;-55
2022/04/12 02:45:11;;;;;;;7.10;3.77;;;0.40;99.90;;;;;;4142258;28;20294;-54
2022/04/12 02:47:12;;;;;;;9.03;4.13;;;0.40;99.90;;;;;;4141437;28;20267;-56
2022/04/12 02:49:14;;;;;;;6.80;3.97;;;0.40;99.90;;;;;;4140767;28;20372;-56
2022/04/12 02:51:15;;;;;;;6.20;3.53;;;0.40;99.90;;;;;;4141790;28;20663;-54
2022/04/12 02:53:16;;;;;;;8.07;4.70;;;0.40;99.90;;;;;;4140935;28;20322;-55
2022/04/12 02:55:17;;;;;;;13.70;3.70;;;0.40;99.90;;;;;;4141739;28;20271;-51
2022/04/12 02:57:18;;;;;;;8.17;4.10;;;0.40;99.90;;;;;;4140252;28;20778;-55
2022/04/12 02:59:19;;;;;;;7.30;3.10;;;0.40;99.90;;;;;;4142006;28;20272;-56
2022/04/12 03:01:20;;;;;;;8.63;3.63;;;0.40;99.90;;;;;;4140000;28;20499;-65
2022/04/12 03:03:21;;;;;;;6.07;3.73;;;0.40;99.90;;;;;;4141910;28;20322;-54
2022/04/12 03:05:22;;;;;;;9.43;3.93;;;0.40;99.90;;;;;;4140369;28;20782;-53
2022/04/12 03:07:24;;;;;;;10.53;4.37;;;0.40;99.90;;;;;;4141734;28;20268;-50
2022/04/12 03:09:25;;;;;;;7.10;3.90;;;0.40;99.90;;;;;;4140101;28;20299;-55
2022/04/12 03:11:26;;;;;;;6.47;4.10;;;0.40;99.90;;;;;;4141144;28;20275;-50
2022/04/12 03:13:27;;;;;;;6.27;3.93;;;0.30;99.90;;;;;;4141077;28;20336;-56
2022/04/12 03:15:28;;;;;;;5.57;3.60;;;0.30;99.90;;;;;;4141156;28;20283;-58
2022/04/12 03:17:29;;;;;;;6.30;3.87;;;0.40;99.90;;;;;;4140544;28;20375;-50
2022/04/12 03:19:30;;;;;;;8.50;4.17;;;0.40;99.90;;;;;;4140147;28;20337;-55
2022/04/12 03:21:31;;;;;;;14.13;4.90;;;0.40;99.90;;;;;;4140956;28;20330;-64
2022/04/12 03:23:32;;;;;;;9.67;3.90;;;0.40;99.90;;;;;;4140459;28;20325;-51
2022/04/12 03:25:34;;;;;;;7.77;4.77;;;0.30;99.90;;;;;;4141156;28;21080;-54
2022/04/12 03:27:35;;;;;;;10.00;3.60;;;0.40;99.90;;;;;;4140352;28;20329;-56
2022/04/12 03:29:36;;;;;;;8.67;3.43;;;0.40;99.90;;;;;;4141077;28;20349;-51
2022/04/12 03:31:39;;;;;;;5.30;3.80;;;0.30;99.90;;;;;;4139344;28;20279;-51
2022/04/12 03:33:40;;;;;;;11.60;5.10;;;0.40;99.90;;;;;;4141202;28;20322;-48
2022/04/12 03:35:43;;;;;;;9.83;4.80;;;0.40;99.90;;;;;;4139960;28;20276;-55
2022/04/12 03:37:44;;;;;;;12.40;5.03;;;0.40;99.90;;;;;;4141481;28;20286;-55
2022/04/12 03:39:45;;;;;;;7.73;4.20;;;0.40;99.90;;;;;;4139384;28;20271;-58
2022/04/12 03:41:47;;;;;;;11.73;3.37;;;0.40;99.90;;;;;;4140378;28;20825;-53
2022/04/12 03:43:50;;;;;;;8.07;5.07;;;0.40;99.90;;;;;;4139981;28;20256;-55
2022/04/12 03:45:51;;;;;;;6.10;3.53;;;0.40;99.90;;;;;;4140462;28;20322;-53
2022/04/12 03:47:53;;;;;;;5.23;3.60;;;0.40;99.90;;;;;;4140459;28;20751;-52
2022/04/12 03:49:54;;;;;;;10.27;3.30;;;0.40;99.90;;;;;;4140413;28;20364;-52
2022/04/12 03:51:55;;;;;;;10.37;4.13;;;0.40;99.90;;;;;;4140581;28;20318;-51
2022/04/12 03:53:56;;;;;;;11.03;4.00;;;0.30;99.90;;;;;;4139403;28;20394;-53
2022/04/12 03:55:57;;;;;;;7.57;3.70;;;0.40;99.90;;;;;;4139146;28;20679;-51
2022/04/12 03:58:03;;;;;;;7.10;4.03;;;0.40;99.90;;;;;;4139032;28;21100;-60
2022/04/12 04:00:08;;;;;;;6.73;3.17;;;0.40;99.90;;;;;;4140534;28;20325;-50
2022/04/12 04:02:09;;;;;;;8.90;3.00;;;0.50;99.90;;;;;;4138843;28;20341;-51
2022/04/12 04:04:10;;;;;;;10.27;3.47;;;0.70;99.90;;;;;;4140190;28;20316;-57
2022/04/12 04:06:11;;;;;;;8.73;3.47;;;0.80;99.90;;;;;;4137741;28;20256;-54
2022/04/12 04:08:12;;;;;;;8.30;3.30;;;0.80;99.90;;;;;;4124753;28;20664;-54
2022/04/12 04:10:13;;;;;;;4.73;2.73;;;0.90;99.90;;;;;;4123454;28;20362;-56
2022/04/12 04:12:14;;;;;;;3.30;2.60;;;1.00;99.90;;;;;;4124832;28;20619;-63
2022/04/12 04:14:16;;;;;;;7.77;2.83;;;1.10;99.90;;;;;;4132489;28;20309;-56
2022/04/12 04:16:17;;;;;;;5.40;3.13;;;1.00;99.90;;;;;;4139994;28;20275;-54
2022/04/12 04:18:18;;;;;;;3.77;2.67;;;1.10;99.90;;;;;;4138924;28;20333;-53
2022/04/12 04:20:19;;;;;;;6.30;3.10;;;1.10;99.90;;;;;;4139839;28;20702;-57
2022/04/12 04:22:20;;;;;;;4.73;2.60;;;1.00;99.90;;;;;;4139790;28;20715;-55
2022/04/12 04:24:23;;;;;;;8.63;2.93;;;1.10;99.90;;;;;;4139299;28;20283;-55
2022/04/12 04:26:24;;;;;;;9.30;3.23;;;1.10;99.90;;;;;;4140619;28;20321;-59
2022/04/12 04:28:29;;;;;;;8.90;3.00;;;1.10;99.90;;;;;;4139586;28;20771;-54
2022/04/12 04:30:32;;;;;;;5.13;2.83;;;1.20;99.90;;;;;;4140263;28;20299;-54
2022/04/12 04:32:34;;;;;;;6.37;4.07;;;1.20;99.90;;;;;;4139183;28;20295;-54
2022/04/12 04:34:36;;;;;;;10.80;3.93;;;1.30;99.90;;;;;;4140282;28;20275;-61
2022/04/12 04:36:37;;;;;;;11.30;5.23;;;1.50;99.90;;;;;;4138776;28;20333;-57
2022/04/12 04:38:38;;;;;;;10.63;6.17;;;1.50;99.90;;;;;;4139304;28;20342;-55
2022/04/12 04:40:39;;;;;;;12.33;5.47;;;1.60;99.90;;;;;;4134804;28;21961;-56
2022/04/12 04:42:40;;;;;;;10.93;5.57;;;1.50;99.90;;;;;;4134617;28;20628;-54
2022/04/12 04:44:41;;;;;;;11.33;5.83;;;1.50;99.90;;;;;;4129231;28;20323;-55
2022/04/12 04:46:42;;;;;;;11.03;5.10;;;1.50;99.90;;;;;;4137623;28;20288;-56
2022/04/12 04:48:43;;;;;;;9.57;5.00;;;1.60;99.90;;;;;;4138925;28;20783;-60
2022/04/12 04:50:45;;;;;;;8.27;4.33;;;1.90;99.90;;;;;;4138153;28;20307;-54
2022/04/12 04:52:48;;;;;;;11.63;5.37;;;2.00;99.90;;;;;;4137692;28;20271;-54
2022/04/12 04:54:49;;;;;;;14.17;5.33;;;2.50;99.90;;;;;;4160624;28;20388;-53
2022/04/12 04:56:51;;;;;;;14.53;5.33;;;2.90;99.90;;;;;;4129373;28;20276;-52
2022/04/12 04:58:53;;;;;;;11.30;5.63;;;3.10;99.90;;;;;;4137142;28;20284;-55
2022/04/12 05:00:54;;;;;;;10.20;5.30;;;3.50;99.90;;;;;;4140211;28;21063;-65
2022/04/12 05:02:56;;;;;;;9.63;4.73;;;3.80;99.90;;;;;;4138069;28;20259;-57
2022/04/12 05:04:57;;;;;;;11.33;4.30;;;4.10;99.90;;;;;;4139237;28;20272;-57
2022/04/12 05:06:58;;;;;;;9.77;4.67;;;4.50;99.90;;;;;;4140857;28;20424;-65
2022/04/12 05:08:59;;;;;;;7.47;4.10;;;5.30;99.90;;;;;;4141963;28;20345;-64
2022/04/12 05:11:00;;;;;;;7.47;2.93;;;5.80;99.90;;;;;;4141103;28;20275;-62
2022/04/12 05:13:02;;;;;;;4.73;3.07;;;6.40;99.90;;;;;;4142395;28;20345;-54
2022/04/12 05:15:04;;;;;;;5.23;2.60;;;6.90;99.90;;;;;;4141805;28;20321;-55
2022/04/12 05:17:05;;;;;;;5.13;2.47;;;7.10;99.90;;;;;;4142683;28;20831;-59
2022/04/12 05:19:06;;;;;;;6.40;2.60;;;6.70;99.90;;;;;;4141703;28;20272;-58
2022/04/12 05:21:07;;;;;;;4.53;2.47;;;6.60;99.90;;;;;;4142446;28;20259;-57
2022/04/12 05:23:08;;;;;;;5.13;2.27;;;6.40;99.90;;;;;;4142444;28;20819;-62
2022/04/12 05:25:09;;;;;;;9.07;2.73;;;6.10;99.90;;;;;;4142175;28;20633;-58
2022/04/12 05:27:10;;;;;;;3.27;2.60;;;5.90;99.90;;;;;;4142714;28;20037;-56
2022/04/12 05:29:11;;;;;;;3.97;2.60;;;5.70;99.90;;;;;;4142163;28;20038;-51
2022/04/12 05:31:12;;;;;;;5.20;2.70;;;5.50;99.90;;;;;;4142682;28;20042;-56
2022/04/12 05:33:14;;;;;;;6.20;2.73;;;5.40;99.90;;;;;;4141389;28;20026;-55
2022/04/12 05:35:15;;;;;;;5.80;3.30;;;5.30;99.90;;;;;;4143027;28;20267;-57
2022/04/12 05:37:16;;;;;;;8.30;3.53;;;5.20;99.90;;;;;;4141659;28;20317;-56
2022/04/12 05:39:17;;;;;;;9.07;3.97;;;5.10;99.90;;;;;;4142669;28;20751;-55
2022/04/12 05:41:18;;;;;;;6.43;3.80;;;5.10;99.90;;;;;;4141048;28;20783;-57
2022/04/12 05:43:20;;;;;;;33.33;13.63;;;4.90;99.90;;;;;;4138692;28;20112;-56
2022/04/12 05:45:21;;;;;;;10.50;4.07;;;4.80;99.90;;;;;;4135246;28;20349;-57
2022/04/12 05:47:22;;;;;;;8.37;3.77;;;4.70;99.90;;;;;;4141793;28;20279;-56
2022/04/12 05:49:23;;;;;;;10.50;3.47;;;4.60;99.90;;;;;;4140829;28;20318;-57
2022/04/12 05:51:24;;;;;;;8.97;3.60;;;4.50;99.90;;;;;;4142118;28;20267;-58
2022/04/12 05:53:26;;;;;;;8.10;4.33;;;4.50;99.90;;;;;;4140099;28;20260;-62
2022/04/12 05:55:27;;;;;;;6.07;4.00;;;4.40;99.90;;;;;;4139551;28;20271;-57
2022/04/12 05:57:28;;;;;;;9.03;3.77;;;4.40;99.90;;;;;;4142112;28;20326;-60
2022/04/12 05:59:29;;;;;;;8.23;3.83;;;4.40;99.90;;;;;;4141465;28;20366;-59
2022/04/12 06:01:30;;;;;;;6.53;4.00;;;4.50;99.90;;;;;;4141346;28;20271;-55
2022/04/12 06:03:31;;;;;;;8.60;3.63;;;4.60;99.90;;;;;;4135096;28;20272;-60
2022/04/12 06:05:32;;;;;;;5.30;3.30;;;4.60;99.90;;;;;;4126652;28;20657;-56
2022/04/12 06:07:34;;;;;;;12.90;4.30;;;4.50;99.90;;;;;;4139861;28;20295;-64
2022/04/12 06:09:35;;;;;;;7.57;3.77;;;4.50;99.90;;;;;;4142317;28;20394;-54
2022/04/12 06:11:36;;;;;;;9.17;3.50;;;4.60;99.90;;;;;;4141259;28;20340;-51
2022/04/12 06:13:37;;;;;;;6.30;3.40;;;4.70;99.90;;;;;;4143089;28;20345;-57
2022/04/12 06:15:38;;;;;;;12.60;3.97;;;4.70;99.90;;;;;;4141801;28;20256;-56
2022/04/12 06:17:40;;;;;;;8.60;3.03;;;4.70;99.90;;;;;;4141853;28;20291;-57
2022/04/12 06:19:41;;;;;;;9.00;3.83;;;4.70;99.90;;;;;;4141409;28;20268;-52
2022/04/12 06:21:42;;;;;;;6.87;2.90;;;4.70;99.90;;;;;;4141994;28;20296;-54
2022/04/12 06:23:44;;;;;;;8.10;3.60;;;4.80;99.90;;;;;;4141362;28;20814;-47
2022/04/12 06:25:45;;;;;;;6.63;3.67;;;4.80;99.90;;;;;;4141383;28;20306;-48
2022/04/12 06:27:50;;;;;;;8.13;4.80;;;4.80;99.90;;;;;;4142037;28;20349;-53
2022/04/12 06:29:52;;;;;;;9.30;3.37;;;4.90;99.90;;;;;;4140625;28;20369;-56
2022/04/12 06:31:53;;;;;;;14.17;4.60;;;4.90;99.90;;;;;;4142103;28;20329;-55
2022/04/12 06:33:54;;;;;;;6.37;3.77;;;5.00;99.90;;;;;;4139974;28;20334;-54
2022/04/12 06:35:56;;;;;;;8.07;3.90;;;5.00;99.90;;;;;;4142229;28;20818;-61
2022/04/12 06:37:57;;;;;;;9.43;3.60;;;5.10;99.90;;;;;;4140412;28;20283;-56
2022/04/12 06:40:00;;;;;;;7.10;3.47;;;5.20;99.90;;;;;;4141802;28;20290;-53
2022/04/12 06:42:01;;;;;;;7.87;3.63;;;5.30;99.90;;;;;;4140865;28;20354;-57
2022/04/12 06:44:02;;;;;;;6.87;4.10;;;5.40;99.90;;;;;;4141958;28;20279;-52
2022/04/12 06:46:03;;;;;;;8.10;3.73;;;5.60;99.90;;;;;;4140119;28;20341;-54
2022/04/12 06:48:05;;;;;;;8.87;3.40;;;5.70;99.90;;;;;;4141812;28;20591;-60
2022/04/12 06:50:08;;;;;;;10.70;3.90;;;5.80;99.90;;;;;;4141032;28;20295;-54
2022/04/12 06:52:09;;;;;;;9.27;3.93;;;6.00;99.90;;;;;;4141218;28;20624;-55
2022/04/12 06:54:10;;;;;;;13.03;4.07;;;6.10;99.90;;;;;;4140434;28;20095;-61
2022/04/12 06:56:11;;;;;;;6.77;3.60;;;6.10;99.90;;;;;;4140634;28;20264;-56
2022/04/12 06:58:12;;;;;;;9.73;4.33;;;6.10;99.90;;;;;;4140913;28;20255;-53
2022/04/12 07:00:14;;;;;;;8.27;3.97;;;6.20;99.90;;;;;;4140549;28;20022;-54
2022/04/12 07:02:15;;;;;;;11.40;4.30;;;6.30;99.90;;;;;;4140156;28;20329;-55
2022/04/12 07:04:16;;;;;;;6.27;3.47;;;6.40;99.90;;;;;;4140340;28;20492;-53
2022/04/12 07:06:17;;;;;;;11.20;3.97;;;6.50;99.90;;;;;;4141550;28;20656;-55
2022/04/12 07:08:18;;;;;;;10.23;4.07;;;6.70;99.90;;;;;;4140104;28;20034;-59
2022/04/12 07:10:19;;;;;;;9.90;4.33;;;6.90;99.90;;;;;;4139897;28;20307;-58
2022/04/12 07:12:20;;;;;;;5.50;3.63;;;7.30;99.90;;;;;;4140681;28;20111;-61
2022/04/12 07:14:23;;;;;;;5.10;4.00;;;7.80;99.90;;;;;;4141274;28;20038;-56
2022/04/12 07:16:24;;;;;;;8.90;3.37;;;8.30;99.90;;;;;;4140594;28;20038;-53
2022/04/12 07:18:25;;;;;;;5.43;3.47;;;8.90;99.60;;;;;;4141619;28;20510;-55
2022/04/12 07:20:26;;;;;;;9.03;3.17;;;9.40;98.20;;;;;;4139861;28;20092;-60
2022/04/12 07:22:28;;;;;;;8.17;4.17;;;9.90;97.40;;;;;;4140955;28;20108;-57
2022/04/12 07:24:29;;;;;;;6.90;3.63;;;10.10;96.70;;;;;;4140874;28;20461;-56
2022/04/12 07:26:31;;;;;;;5.27;3.83;;;10.40;96.20;;;;;;4139737;28;20589;-57
2022/04/12 07:28:32;;;;;;;5.83;2.53;;;10.80;95.20;;;;;;4140929;28;20479;-58
2022/04/12 07:30:33;;;;;;;3.00;2.10;;;10.90;94.00;;;;;;4140217;28;20042;-55
2022/04/12 07:32:35;;;;;;;5.53;2.23;;;10.80;93.50;;;;;;4139944;28;20061;-62
2022/04/12 07:34:36;;;;;;;4.97;3.17;;;10.90;93.10;;;;;;4140407;28;20042;-60
2022/04/12 07:36:39;;;;;;;3.43;2.67;;;10.80;92.60;;;;;;4141376;28;20430;-56
2022/04/12 07:38:42;;;;;;;4.20;2.17;;;10.80;92.50;;;;;;4139824;28;20444;-55
2022/04/12 07:40:43;;;;;;;3.40;1.97;;;11.00;91.60;;;;;;4141567;28;20839;-55
2022/04/12 07:42:45;;;;;;;11.07;3.23;;;10.90;91.00;;;;;;4139524;28;20547;-55
2022/04/12 07:44:46;;;;;;;5.93;2.70;;;10.30;89.50;;;;;;4141128;28;20080;-61
2022/04/12 07:46:47;;;;;;;6.43;2.80;;;9.70;90.20;;;;;;4140020;28;20821;-57
2022/04/12 07:48:48;;;;;;;10.60;3.50;;;9.30;89.80;;;;;;4141217;28;20022;-56
2022/04/12 07:50:50;;;;;;;6.13;2.63;;;9.10;90.50;;;;;;4139804;28;20057;-58
2022/04/12 07:52:51;;;;;;;8.97;3.00;;;9.10;90.70;;;;;;4140958;28;20085;-55
2022/04/12 07:54:52;;;;;;;4.73;2.67;;;9.30;91.10;;;;;;4140239;28;20026;-55
2022/04/12 07:56:54;;;;;;;8.37;3.53;;;9.30;90.50;;;;;;4140343;28;20449;-60
2022/04/12 07:58:56;;;;;;;6.83;2.60;;;9.30;90.70;;;;;;4140026;28;20088;-50
2022/04/12 08:00:57;;;;;;;4.13;2.30;;;9.50;90.70;;;;;;4139623;28;20041;-56
2022/04/12 08:02:58;;;;;;;9.97;2.40;;;9.60;90.10;;;;;;4140535;28;20079;-55
2022/04/12 08:04:59;;;;;;;4.87;2.40;;;9.80;90.20;;;;;;4138970;28;20038;-56
2022/04/12 08:07:03;;;;;;;3.30;1.17;;;9.90;90.20;;;;;;4140377;28;20091;-58
2022/04/12 08:09:04;;;;;;;4.33;1.13;;;9.70;86.20;;;;;;4139811;28;20541;-52
2022/04/12 08:11:06;;;;;;;3.53;1.37;;;9.70;87.90;;;;;;4140799;28;20050;-56
2022/04/12 08:13:07;;;;;;;2.93;1.10;;;9.70;88.10;;;;;;4139891;28;20113;-57
2022/04/12 08:15:12;;;;;;;2.50;1.23;;;9.70;86.90;;;;;;4141988;28;20046;-56
2022/04/12 08:17:13;;;;;;;2.90;1.27;;;10.00;85.00;;;;;;4137695;28;20049;-57
2022/04/12 08:19:14;;;;;;;5.07;1.20;;;10.40;85.30;;;;;;4141159;28;20042;-55
2022/04/12 08:21:36;;;;;;;2.20;0.80;;;10.80;84.60;;;;;;4139393;28;20054;-56
2022/04/12 08:23:38;;;;;;;3.17;1.23;;;11.00;80.30;;;;;;4140627;28;20033;-53
2022/04/12 08:25:39;;;;;;;3.37;1.30;;;10.90;82.60;;;;;;4139059;28;20084;-57
2022/04/12 08:27:40;;;;;;;8.63;2.10;;;10.90;82.20;;;;;;4141137;28;20054;-56
2022/04/12 08:29:41;;;;;;;3.50;1.00;;;10.70;82.00;;;;;;4139528;28;20034;-57
2022/04/12 08:31:42;;;;;;;2.87;1.93;;;10.50;80.90;;;;;;4136150;28;20085;-60
2022/04/12 08:33:43;;;;;;;1.53;1.43;;;10.30;81.60;;;;;;4136700;28;20479;-54
2022/04/12 08:35:44;;;;;;;1.77;1.27;;;10.20;81.50;;;;;;4139786;28;20123;-64
2022/04/12 08:37:45;;;;;;;2.30;1.17;;;10.10;80.70;;;;;;4139444;28;20092;-54
2022/04/12 08:39:47;;;;;;;4.77;0.90;;;10.10;80.70;;;;;;4139842;28;20018;-57
2022/04/12 08:41:51;;;;;;;1.90;1.23;;;10.30;79.80;;;;;;4140907;28;20522;-53
2022/04/12 08:43:57;;;;;;;7.33;1.50;;;10.60;79.70;;;;;;4142363;28;20113;-56
2022/04/12 08:45:59;;;;;;;5.33;1.50;;;10.60;78.70;;;;;;4144730;28;20092;-56
2022/04/12 08:48:00;;;;;;;2.37;1.23;;;10.50;76.60;;;;;;4142469;28;20076;-52
2022/04/12 08:50:04;;;;;;;4.10;2.03;;;10.30;78.90;;;;;;4143660;28;20457;-64
2022/04/12 08:52:11;;;;;;;2.20;1.20;;;10.40;79.00;;;;;;4141321;28;20461;-53
2022/04/12 08:54:12;;;;;;;5.33;1.27;;;10.40;77.50;;;;;;4142424;28;20129;-56
2022/04/12 08:56:13;;;;;;;5.00;1.23;;;10.20;76.60;;;;;;4142322;28;20816;-55
2022/04/12 08:58:14;;;;;;;5.17;1.10;;;10.10;77.10;;;;;;4143934;28;20038;-54
2022/04/12 09:00:16;;;;;;;2.43;0.73;;;10.00;76.50;;;;;;4142179;28;20038;-56
2022/04/12 09:02:17;;;;;;;1.63;1.33;;;10.00;76.80;;;;;;4143757;28;20018;-53
2022/04/12 09:04:18;;;;;;;5.07;1.20;;;10.10;76.90;;;;;;4143035;28;20394;-58
2022/04/12 09:06:20;;;;;;;2.03;1.00;;;10.30;75.20;;;;;;4144006;28;20483;-68
2022/04/12 09:08:24;;;;;;;2.47;0.90;;;10.60;76.20;;;;;;4143228;28;20108;-59
2022/04/12 09:10:34;;;;;;;2.47;1.03;;;10.90;75.70;;;;;;4142379;28;20054;-56
2022/04/12 09:12:35;;;;;;;2.50;0.80;;;10.80;70.00;;;;;;4142452;28;20127;-51
2022/04/12 09:14:36;;;;;;;4.57;1.60;;;10.80;69.90;;;;;;4142126;28;20088;-60
2022/04/12 09:16:43;;;;;;;1.43;1.10;;;11.00;69.50;;;;;;4143079;28;20088;-53
2022/04/12 09:18:46;;;;;;;1.33;1.00;;;10.90;69.50;;;;;;4126064;28;20058;-61
2022/04/12 09:20:53;;;;;;;2.07;0.80;;;10.80;71.10;;;;;;4136271;28;20524;-58
2022/04/12 09:22:55;;;;;;;2.83;1.77;;;10.80;71.40;;;;;;4142006;28;20081;-53
2022/04/12 09:25:01;;;;;;;2.40;0.90;;;11.00;72.10;;;;;;4142889;28;20045;-53
2022/04/12 09:27:03;;;;;;;2.77;0.70;;;11.30;71.60;;;;;;4141154;28;20567;-56
2022/04/12 09:29:04;;;;;;;2.40;0.80;;;11.50;71.00;;;;;;4142689;28;20881;-56
2022/04/12 09:31:16;;;;;;;3.93;1.20;;;11.60;70.70;;;;;;4141296;28;20046;-54
2022/04/12 09:33:40;;;;;;;2.73;0.60;;;11.60;69.40;;;;;;4159127;28;20041;-53
2022/04/12 09:35:43;;;;;;;3.40;0.90;;;11.60;68.10;;;;;;4158507;28;20025;-52
2022/04/12 09:37:47;;;;;;;1.23;0.90;;;11.80;69.70;;;;;;4159808;28;20112;-56
2022/04/12 09:40:03;;;;;;;1.87;0.70;;;11.90;68.60;;;;;;4158308;28;20033;-56
2022/04/12 09:42:04;;;;;;;3.23;1.03;;;12.00;65.40;;;;;;4152264;28;20096;-57
2022/04/12 09:44:08;;;;;;;2.27;1.37;;;12.00;66.70;;;;;;4140440;28;20072;-52
2022/04/12 09:46:14;;;;;;;2.40;0.70;;;12.10;67.10;;;;;;4138595;28;20022;-56
2022/04/12 09:48:15;;;;;;;4.23;1.23;;;12.20;65.80;;;;;;4140641;28;20107;-53
2022/04/12 09:50:20;;;;;;;2.60;0.80;;;11.70;66.20;;;;;;4142400;28;20038;-55
2022/04/12 09:52:22;;;;;;;6.73;1.10;;;11.20;66.30;;;;;;4140581;28;20073;-56
2022/04/12 09:54:23;;;;;;;5.97;1.10;;;11.00;65.30;;;;;;4142790;28;20033;-55
2022/04/12 09:56:29;;;;;;;2.00;0.73;;;10.80;65.20;;;;;;4141300;28;20486;-55
2022/04/12 09:58:31;;;;;;;5.07;0.77;;;10.80;66.20;;;;;;4142385;28;20033;-55
2022/04/12 10:00:33;;;;;;;2.97;0.87;;;10.90;66.60;;;;;;4139709;28;20080;-52
2022/04/12 10:02:35;;;;;;;2.67;0.87;;;11.20;66.00;;;;;;4132953;28;20052;-53
2022/04/12 10:04:38;;;;;;;1.13;0.90;;;11.20;65.20;;;;;;4141877;28;20518;-60
2022/04/12 10:06:41;;;;;;;1.80;0.63;;;11.30;65.30;;;;;;4140015;28;20084;-59
2022/04/12 10:08:46;;;;;;;4.10;1.30;;;11.40;64.70;;;;;;4141890;28;20383;-51
2022/04/12 10:10:47;;;;;;;3.03;0.67;;;11.30;64.10;;;;;;4141032;28;20054;-56
2022/04/12 10:12:50;;;;;;;1.80;0.97;;;11.20;64.50;;;;;;4140081;28;20085;-56
2022/04/12 10:14:51;;;;;;;4.90;1.27;;;11.10;64.50;;;;;;4140064;28;20026;-54
2022/04/12 10:16:56;;;;;;;5.50;1.33;;;11.10;65.10;;;;;;4140736;28;20092;-60
2022/04/12 10:19:00;;;;;;;3.63;0.90;;;11.00;64.30;;;;;;4139815;28;20046;-55
2022/04/12 10:21:01;;;;;;;1.47;0.60;;;11.10;65.10;;;;;;4141283;28;20034;-55
2022/04/12 10:23:05;;;;;;;5.50;1.40;;;11.10;65.00;;;;;;4140589;28;20045;-55
2022/04/12 10:25:06;;;;;;;3.60;1.30;;;11.20;65.80;;;;;;4142630;28;20390;-54
2022/04/12 10:27:08;;;;;;;6.33;1.47;;;11.10;64.90;;;;;;4141203;28;20080;-54
2022/04/12 10:29:09;;;;;;;2.13;1.30;;;10.90;65.60;;;;;;4142233;28;20030;-57
2022/04/12 10:31:13;;;;;;;2.20;0.77;;;10.90;65.60;;;;;;4140003;28;20106;-57
2022/04/12 10:33:24;;;;;;;3.80;1.00;;;11.10;65.40;;;;;;4141764;28;20041;-56
2022/04/12 10:35:25;;;;;;;2.07;1.10;;;11.20;65.50;;;;;;4140593;28;21196;-56
2022/04/12 10:37:27;;;;;;;3.03;1.30;;;11.20;65.30;;;;;;4137707;28;20091;-53
2022/04/12 10:39:37;;;;;;;2.20;1.13;;;11.30;65.60;;;;;;4139676;28;20437;-58